Time;durP1;ratioP1;P1;durP2;ratioP2;P2;SDS_P1;SDS_P2;PMS_P1;PMS_P2;Temp;Humidity;BMP_temperature;BMP_pressure;BME280_temperature;BME280_humidity;BME280_pressure;Samples;Min_cycle;Max_cycle;Signal;HPM_P1;HPM_P2
2021/10/01 00:00:58;;;;;;;17.43;12.57;;;;;;;;;;764792;180;919476;-61
2021/10/01 00:03:23;;;;;;;17.60;12.50;;;;;;;;;;772186;181;919019;-61
2021/10/01 00:05:49;;;;;;;15.90;12.77;;;;;;;;;;761351;180;919369;-61
2021/10/01 00:08:15;;;;;;;16.10;11.60;;;;;;;;;;760279;180;918225;-62
2021/10/01 00:10:41;;;;;;;18.53;11.70;;;;;;;;;;760356;180;919607;-61
2021/10/01 00:13:07;;;;;;;15.33;11.30;;;;;;;;;;765560;182;919123;-61
2021/10/01 00:15:33;;;;;;;17.83;12.20;;;;;;;;;;769051;180;919582;-62
2021/10/01 00:17:59;;;;;;;16.47;11.17;;;;;;;;;;766066;181;919048;-62
2021/10/01 00:20:24;;;;;;;15.47;11.13;;;;;;;;;;770481;180;918957;-62
2021/10/01 00:22:50;;;;;;;13.77;10.57;;;;;;;;;;774333;180;920041;-61
2021/10/01 00:25:16;;;;;;;21.13;12.10;;;;;;;;;;767874;180;919823;-61
2021/10/01 00:27:42;;;;;;;19.37;11.90;;;;;;;;;;764832;180;938103;-61
2021/10/01 00:30:08;;;;;;;18.97;11.23;;;;;;;;;;762112;180;919884;-61
2021/10/01 00:32:34;;;;;;;14.87;11.13;;;;;;;;;;763692;180;919284;-62
2021/10/01 00:35:01;;;;;;;15.53;10.10;;;;;;;;;;763167;181;917977;-61
2021/10/01 00:37:26;;;;;;;16.50;11.63;;;;;;;;;;760810;180;917161;-62
2021/10/01 00:39:53;;;;;;;17.73;11.53;;;;;;;;;;769756;180;920247;-62
2021/10/01 00:42:17;;;;;;;20.40;10.83;;;;;;;;;;758380;183;919145;-61
2021/10/01 00:44:43;;;;;;;19.37;10.50;;;;;;;;;;769142;183;917897;-62
2021/10/01 00:47:09;;;;;;;15.83;10.37;;;;;;;;;;759581;183;920710;-61
2021/10/01 00:49:35;;;;;;;19.07;10.10;;;;;;;;;;746659;187;920237;-63
2021/10/01 00:52:01;;;;;;;16.00;11.53;;;;;;;;;;746181;184;919720;-61
2021/10/01 00:54:26;;;;;;;15.30;11.63;;;;;;;;;;742763;186;918716;-61
2021/10/01 00:56:52;;;;;;;15.27;11.03;;;;;;;;;;747239;184;920640;-62
2021/10/01 00:59:18;;;;;;;16.27;11.63;;;;;;;;;;752229;184;915279;-63
2021/10/01 01:01:44;;;;;;;15.40;12.40;;;;;;;;;;747275;183;988258;-62
2021/10/01 01:04:10;;;;;;;15.30;10.87;;;;;;;;;;741449;187;919215;-63
2021/10/01 01:06:39;;;;;;;16.77;9.70;;;;;;;;;;760056;183;919059;-62
2021/10/01 01:09:07;;;;;;;16.83;10.40;;;;;;;;;;756540;184;919234;-62
2021/10/01 01:11:38;;;;;;;18.30;12.10;;;;;;;;;;764211;180;921719;-61
2021/10/01 01:14:07;;;;;;;15.57;10.27;;;;;;;;;;767644;180;925985;-62
2021/10/01 01:16:33;;;;;;;14.50;10.90;;;;;;;;;;750669;180;918432;-62
2021/10/01 01:18:58;;;;;;;16.87;12.27;;;;;;;;;;775688;180;918350;-63
2021/10/01 01:21:26;;;;;;;12.80;9.57;;;;;;;;;;760025;180;921093;-62
2021/10/01 01:23:56;;;;;;;14.90;10.30;;;;;;;;;;743744;184;919548;-63
2021/10/01 01:26:27;;;;;;;14.93;9.65;;;;;;;;;;762013;183;919338;-62
2021/10/01 01:29:11;;;;;;;17.17;9.63;;;;;;;;;;753369;184;918753;-62
2021/10/01 01:31:43;;;;;;;14.17;10.63;;;;;;;;;;737561;190;919064;-62
2021/10/01 01:34:08;;;;;;;16.73;8.70;;;;;;;;;;759662;183;918524;-63
2021/10/01 01:36:34;;;;;;;15.70;9.50;;;;;;;;;;757584;180;918975;-65
2021/10/01 01:39:00;;;;;;;9.80;8.80;;;;;;;;;;738237;188;980761;-63
2021/10/01 01:41:26;;;;;;;11.10;8.20;;;;;;;;;;749825;185;918979;-65
2021/10/01 01:43:52;;;;;;;15.87;9.83;;;;;;;;;;742162;186;1037643;-64
2021/10/01 01:46:18;;;;;;;13.85;9.30;;;;;;;;;;757551;183;1021647;-64
2021/10/01 01:48:43;;;;;;;15.30;10.70;;;;;;;;;;764395;183;918861;-65
2021/10/01 01:51:09;;;;;;;18.37;11.80;;;;;;;;;;760906;183;918311;-65
2021/10/01 01:53:35;;;;;;;20.65;9.73;;;;;;;;;;742821;187;914537;-64
2021/10/01 01:56:01;;;;;;;12.03;9.23;;;;;;;;;;775155;180;916685;-63
2021/10/01 01:58:27;;;;;;;11.65;8.90;;;;;;;;;;765070;180;919530;-64
2021/10/01 02:00:53;;;;;;;13.60;9.43;;;;;;;;;;745287;185;1035645;-64
2021/10/01 02:03:18;;;;;;;13.00;8.50;;;;;;;;;;733539;189;916566;-64
2021/10/01 02:05:44;;;;;;;11.00;8.50;;;;;;;;;;729258;190;915822;-66
2021/10/01 02:08:10;;;;;;;15.67;10.40;;;;;;;;;;755929;183;915207;-65
2021/10/01 02:10:37;;;;;;;12.55;9.90;;;;;;;;;;749265;185;915952;-65
2021/10/01 02:13:02;;;;;;;14.87;10.37;;;;;;;;;;760482;182;916131;-65
2021/10/01 02:15:28;;;;;;;17.57;10.97;;;;;;;;;;724900;191;1017513;-67
2021/10/01 02:17:54;;;;;;;16.13;11.83;;;;;;;;;;749165;186;919188;-65
2021/10/01 02:20:19;;;;;;;14.67;11.13;;;;;;;;;;755237;183;916541;-66
2021/10/01 02:22:45;;;;;;;12.67;9.80;;;;;;;;;;749732;183;915950;-65
2021/10/01 02:27:44;;;;;;;19.60;10.73;;;;;;;;;;749347;184;919068;-65
2021/10/01 02:30:10;;;;;;;13.10;10.40;;;;;;;;;;747678;183;918183;-66
2021/10/01 02:32:36;;;;;;;12.93;11.50;;;;;;;;;;751386;183;919227;-65
2021/10/01 02:35:02;;;;;;;17.60;11.07;;;;;;;;;;751549;183;918961;-66
2021/10/01 02:37:28;;;;;;;17.77;11.80;;;;;;;;;;746679;187;918473;-65
2021/10/01 02:39:54;;;;;;;16.17;11.10;;;;;;;;;;760379;183;918304;-66
2021/10/01 02:42:20;;;;;;;16.20;10.30;;;;;;;;;;760416;180;918651;-65
2021/10/01 02:44:45;;;;;;;18.43;11.40;;;;;;;;;;767214;180;918737;-65
2021/10/01 02:47:11;;;;;;;13.70;10.50;;;;;;;;;;759851;183;918430;-65
2021/10/01 02:49:38;;;;;;;17.93;12.00;;;;;;;;;;766734;180;919836;-65
2021/10/01 02:52:20;;;;;;;15.83;11.60;;;;;;;;;;772391;180;919276;-64
2021/10/01 02:54:46;;;;;;;17.47;12.43;;;;;;;;;;762586;180;917704;-65
2021/10/01 02:57:12;;;;;;;16.57;11.60;;;;;;;;;;763823;183;918411;-66
2021/10/01 02:59:38;;;;;;;13.07;10.00;;;;;;;;;;749828;183;920315;-65
2021/10/01 03:02:03;;;;;;;17.37;12.00;;;;;;;;;;747225;183;919724;-65
2021/10/01 03:04:29;;;;;;;14.60;9.87;;;;;;;;;;745987;186;917692;-66
2021/10/01 03:06:55;;;;;;;21.93;10.53;;;;;;;;;;742207;186;925428;-65
2021/10/01 03:09:21;;;;;;;12.77;9.20;;;;;;;;;;751755;183;924609;-66
2021/10/01 03:11:47;;;;;;;15.33;10.53;;;;;;;;;;760565;183;919112;-66
2021/10/01 03:14:13;;;;;;;17.30;11.55;;;;;;;;;;750416;183;919251;-65
2021/10/01 03:16:38;;;;;;;17.43;11.80;;;;;;;;;;758754;183;919053;-66
2021/10/01 03:19:04;;;;;;;17.63;11.87;;;;;;;;;;762827;183;922991;-64
2021/10/01 03:21:30;;;;;;;17.63;12.13;;;;;;;;;;763297;179;903930;-67
2021/10/01 03:23:56;;;;;;;25.50;12.90;;;;;;;;;;747812;187;919618;-66
2021/10/01 03:26:22;;;;;;;21.30;12.40;;;;;;;;;;746863;184;919401;-65
2021/10/01 03:28:47;;;;;;;19.60;14.33;;;;;;;;;;752151;187;919544;-65
2021/10/01 03:31:13;;;;;;;18.80;12.03;;;;;;;;;;754080;181;921977;-65
2021/10/01 03:33:39;;;;;;;22.35;12.68;;;;;;;;;;765271;182;918553;-65
2021/10/01 03:36:05;;;;;;;17.63;12.00;;;;;;;;;;774218;181;918289;-65
2021/10/01 03:38:31;;;;;;;18.77;11.80;;;;;;;;;;768866;180;918852;-65
2021/10/01 03:40:57;;;;;;;16.00;11.87;;;;;;;;;;767626;180;919101;-64
2021/10/01 03:43:24;;;;;;;17.43;11.73;;;;;;;;;;770696;180;917876;-64
2021/10/01 03:45:48;;;;;;;17.57;12.57;;;;;;;;;;759742;180;1738573;-62
2021/10/01 03:48:14;;;;;;;19.63;13.53;;;;;;;;;;744854;187;919480;-64
2021/10/01 03:50:41;;;;;;;18.90;12.43;;;;;;;;;;758175;180;919683;-64
2021/10/01 03:53:06;;;;;;;14.73;12.13;;;;;;;;;;753438;186;909826;-64
2021/10/01 03:55:32;;;;;;;17.23;11.70;;;;;;;;;;738823;187;919769;-64
2021/10/01 03:57:58;;;;;;;16.47;11.53;;;;;;;;;;761304;180;928334;-62
2021/10/01 04:00:24;;;;;;;15.03;10.97;;;;;;;;;;763776;183;920587;-64
2021/10/01 04:02:49;;;;;;;20.17;11.40;;;;;;;;;;764549;180;919218;-64
2021/10/01 04:05:16;;;;;;;18.37;12.33;;;;;;;;;;754561;184;918934;-63
2021/10/01 04:07:41;;;;;;;14.17;11.27;;;;;;;;;;753186;183;917755;-63
2021/10/01 04:10:07;;;;;;;18.67;10.90;;;;;;;;;;762732;183;919622;-63
2021/10/01 04:12:33;;;;;;;17.77;11.63;;;;;;;;;;747579;184;919753;-65
2021/10/01 04:14:59;;;;;;;14.87;12.43;;;;;;;;;;761082;183;920036;-63
2021/10/01 04:17:25;;;;;;;18.47;11.57;;;;;;;;;;750429;184;919591;-64
2021/10/01 04:19:51;;;;;;;29.47;12.43;;;;;;;;;;756917;183;919469;-63
2021/10/01 04:22:16;;;;;;;15.13;11.53;;;;;;;;;;759292;183;922111;-62
2021/10/01 04:24:42;;;;;;;15.30;11.70;;;;;;;;;;753192;183;918901;-63
2021/10/01 04:27:08;;;;;;;18.00;13.70;;;;;;;;;;758969;183;920891;-62
2021/10/01 04:29:34;;;;;;;16.60;11.60;;;;;;;;;;759491;182;919844;-63
2021/10/01 04:32:03;;;;;;;19.20;12.20;;;;;;;;;;764230;180;919113;-63
2021/10/01 04:34:28;;;;;;;18.57;11.67;;;;;;;;;;749328;184;919793;-62
2021/10/01 04:36:51;;;;;;;23.42;12.45;;;;;;;;;;749258;183;2352468;-64
2021/10/01 04:39:18;;;;;;;21.35;13.73;;;;;;;;;;759009;183;919138;-61
2021/10/01 04:41:44;;;;;;;18.70;12.40;;;;;;;;;;758962;183;905243;-62
2021/10/01 04:44:11;;;;;;;18.97;12.87;;;;;;;;;;764280;181;882949;-63
2021/10/01 04:46:35;;;;;;;19.40;13.17;;;;;;;;;;763205;180;617830;-63
2021/10/01 04:49:01;;;;;;;19.20;12.97;;;;;;;;;;766667;183;620931;-61
2021/10/01 04:51:27;;;;;;;20.03;12.67;;;;;;;;;;760251;183;618534;-62
2021/10/01 04:53:53;;;;;;;21.17;13.07;;;;;;;;;;769696;182;613816;-62
2021/10/01 04:56:19;;;;;;;16.03;12.33;;;;;;;;;;765247;183;625046;-61
2021/10/01 04:58:44;;;;;;;17.07;12.80;;;;;;;;;;761978;183;920804;-62
2021/10/01 05:01:10;;;;;;;21.95;13.40;;;;;;;;;;763880;183;920345;-61
2021/10/01 05:03:36;;;;;;;14.60;11.20;;;;;;;;;;768030;183;620554;-61
2021/10/01 05:06:02;;;;;;;15.03;12.23;;;;;;;;;;752363;183;632233;-62
2021/10/01 05:08:28;;;;;;;19.03;12.90;;;;;;;;;;759366;183;919211;-61
2021/10/01 05:10:54;;;;;;;15.20;12.10;;;;;;;;;;750229;184;919809;-60
2021/10/01 05:13:20;;;;;;;17.63;11.17;;;;;;;;;;768920;180;917438;-61
2021/10/01 05:15:46;;;;;;;16.10;11.80;;;;;;;;;;747136;185;919103;-61
2021/10/01 05:18:14;;;;;;;22.43;12.00;;;;;;;;;;747245;183;1032170;-62
2021/10/01 05:20:38;;;;;;;19.40;12.00;;;;;;;;;;749432;186;919465;-61
2021/10/01 05:23:04;;;;;;;15.93;11.97;;;;;;;;;;747415;184;918783;-60
2021/10/01 05:25:30;;;;;;;13.50;10.27;;;;;;;;;;741991;186;1022011;-62
2021/10/01 05:27:55;;;;;;;21.47;12.27;;;;;;;;;;748931;184;919605;-62
2021/10/01 05:30:21;;;;;;;24.30;10.90;;;;;;;;;;747247;181;919080;-62
2021/10/01 05:32:47;;;;;;;15.10;11.43;;;;;;;;;;741543;187;919370;-61
2021/10/01 05:35:13;;;;;;;16.50;10.97;;;;;;;;;;742890;187;917504;-62
2021/10/01 05:37:39;;;;;;;16.43;11.20;;;;;;;;;;740998;187;919241;-61
2021/10/01 05:40:05;;;;;;;17.47;12.63;;;;;;;;;;747215;184;918415;-62
2021/10/01 05:42:31;;;;;;;19.60;12.90;;;;;;;;;;757322;183;919215;-61
2021/10/01 05:44:57;;;;;;;16.43;11.77;;;;;;;;;;765175;180;919059;-62
2021/10/01 05:47:23;;;;;;;20.62;13.27;;;;;;;;;;763392;180;919309;-62
2021/10/01 05:49:49;;;;;;;17.63;12.43;;;;;;;;;;772067;180;931421;-62
2021/10/01 05:52:22;;;;;;;18.10;12.23;;;;;;;;;;770870;180;919532;-61
2021/10/01 05:54:41;;;;;;;19.53;12.57;;;;;;;;;;764884;180;919665;-63
2021/10/01 05:57:06;;;;;;;22.20;11.63;;;;;;;;;;749116;184;919027;-63
2021/10/01 05:59:32;;;;;;;25.55;14.40;;;;;;;;;;759557;183;1018963;-60
2021/10/01 06:01:58;;;;;;;17.73;12.47;;;;;;;;;;767486;181;918266;-61
2021/10/01 06:04:24;;;;;;;20.90;13.07;;;;;;;;;;748876;182;918531;-62
2021/10/01 06:06:50;;;;;;;16.70;12.50;;;;;;;;;;760683;183;918100;-61
2021/10/01 06:09:18;;;;;;;17.90;11.33;;;;;;;;;;769726;183;919542;-61
2021/10/01 06:11:42;;;;;;;18.10;13.87;;;;;;;;;;741709;186;917968;-61
2021/10/01 06:14:07;;;;;;;22.13;12.87;;;;;;;;;;758042;183;919092;-61
2021/10/01 06:16:33;;;;;;;18.10;14.07;;;;;;;;;;767935;183;918915;-62
2021/10/01 06:18:59;;;;;;;17.27;13.03;;;;;;;;;;759116;183;919793;-61
2021/10/01 06:21:25;;;;;;;16.90;13.00;;;;;;;;;;767168;180;914664;-64
2021/10/01 06:23:51;;;;;;;16.50;13.77;;;;;;;;;;763684;180;1022471;-63
2021/10/01 06:26:17;;;;;;;30.87;16.00;;;;;;;;;;753819;183;919438;-63
2021/10/01 06:28:42;;;;;;;19.83;14.03;;;;;;;;;;742902;187;919579;-63
2021/10/01 06:31:08;;;;;;;22.03;15.87;;;;;;;;;;761207;180;870736;-64
2021/10/01 06:33:35;;;;;;;25.67;16.27;;;;;;;;;;765700;180;913016;-63
2021/10/01 06:36:00;;;;;;;23.10;15.43;;;;;;;;;;761600;184;920912;-61
2021/10/01 06:38:26;;;;;;;20.33;14.95;;;;;;;;;;741654;183;960272;-62
2021/10/01 06:40:52;;;;;;;29.03;14.90;;;;;;;;;;771748;180;933765;-62
2021/10/01 06:43:18;;;;;;;24.63;17.07;;;;;;;;;;769524;180;919261;-62
2021/10/01 06:45:46;;;;;;;24.75;16.05;;;;;;;;;;758117;183;909314;-63
2021/10/01 06:48:20;;;;;;;23.00;14.67;;;;;;;;;;758409;183;918422;-62
2021/10/01 06:51:07;;;;;;;22.77;16.00;;;;;;;;;;770822;180;918834;-62
2021/10/01 07:39:20;;;;;;;17.90;13.70;;;;;;;;;;748493;183;925030;-63
2021/10/01 08:19:25;;;;;;;13.00;10.50;;;;;;;;;;756887;183;920907;-63
2021/10/01 08:21:50;;;;;;;14.23;11.60;;;;;;;;;;768784;180;925455;-63
2021/10/01 08:24:16;;;;;;;16.00;12.07;;;;;;;;;;759147;183;922965;-64
2021/10/01 08:26:42;;;;;;;16.20;10.70;;;;;;;;;;771038;180;919675;-63
2021/10/01 08:29:08;;;;;;;18.97;11.03;;;;;;;;;;763991;183;919967;-64
2021/10/01 08:31:33;;;;;;;13.77;10.70;;;;;;;;;;758883;183;918072;-64
2021/10/01 08:33:59;;;;;;;17.60;9.70;;;;;;;;;;758480;183;918254;-64
2021/10/01 08:36:25;;;;;;;10.90;8.70;;;;;;;;;;749490;183;920288;-64
2021/10/01 08:38:51;;;;;;;9.73;7.97;;;;;;;;;;772955;180;919772;-64
2021/10/01 08:41:17;;;;;;;16.80;8.40;;;;;;;;;;745684;184;922550;-63
2021/10/01 08:43:43;;;;;;;12.43;8.97;;;;;;;;;;747031;184;918974;-66
2021/10/01 08:46:09;;;;;;;8.20;7.10;;;;;;;;;;737605;190;926079;-64
2021/10/01 08:48:35;;;;;;;9.25;7.93;;;;;;;;;;758964;183;920157;-64
2021/10/01 08:51:01;;;;;;;17.13;8.23;;;;;;;;;;752512;183;928000;-61
2021/10/01 08:53:27;;;;;;;12.60;10.07;;;;;;;;;;757309;184;918918;-62
2021/10/01 08:55:53;;;;;;;13.23;8.63;;;;;;;;;;747762;187;919392;-62
2021/10/01 08:58:21;;;;;;;14.00;9.33;;;;;;;;;;739051;185;918854;-62
2021/10/01 09:00:46;;;;;;;9.37;7.13;;;;;;;;;;755409;184;919318;-61
2021/10/01 09:03:10;;;;;;;10.70;8.40;;;;;;;;;;767498;182;915147;-62
2021/10/01 09:05:36;;;;;;;12.23;7.53;;;;;;;;;;761785;181;919704;-62
2021/10/01 09:08:08;;;;;;;12.17;7.40;;;;;;;;;;761527;183;919336;-62
2021/10/01 09:10:34;;;;;;;10.33;6.67;;;;;;;;;;762889;181;918633;-63
2021/10/01 09:13:00;;;;;;;10.50;7.43;;;;;;;;;;759460;183;919409;-63
2021/10/01 09:15:25;;;;;;;13.60;7.00;;;;;;;;;;754857;183;1017949;-64
2021/10/01 09:17:52;;;;;;;9.23;6.40;;;;;;;;;;756776;183;1019967;-65
2021/10/01 09:20:17;;;;;;;12.63;7.37;;;;;;;;;;766418;180;1022431;-63
2021/10/01 09:22:45;;;;;;;11.13;7.70;;;;;;;;;;739598;184;922243;-63
2021/10/01 09:25:14;;;;;;;8.27;6.50;;;;;;;;;;744749;187;916912;-61
2021/10/01 09:27:39;;;;;;;12.13;6.50;;;;;;;;;;742113;188;916101;-63
2021/10/01 09:30:05;;;;;;;7.93;5.50;;;;;;;;;;758105;183;915999;-64
2021/10/01 09:32:31;;;;;;;7.67;4.90;;;;;;;;;;763886;183;916349;-64
2021/10/01 09:34:57;;;;;;;10.30;6.03;;;;;;;;;;757298;183;916175;-63
2021/10/01 09:37:26;;;;;;;6.20;4.73;;;;;;;;;;743344;185;919245;-64
2021/10/01 09:39:50;;;;;;;5.03;4.23;;;;;;;;;;757088;183;727983;-63
2021/10/01 09:42:15;;;;;;;7.23;3.60;;;;;;;;;;765549;183;919696;-64
2021/10/01 09:44:42;;;;;;;6.10;3.53;;;;;;;;;;760557;183;919226;-64
2021/10/01 09:47:08;;;;;;;7.70;3.83;;;;;;;;;;765783;180;920638;-63
2021/10/01 09:49:34;;;;;;;4.13;3.03;;;;;;;;;;761825;181;919340;-64
2021/10/01 09:52:00;;;;;;;5.40;2.87;;;;;;;;;;763626;180;919217;-63
2021/10/01 09:54:25;;;;;;;5.53;3.70;;;;;;;;;;768079;180;1021489;-63
2021/10/01 09:56:51;;;;;;;5.93;3.70;;;;;;;;;;773735;180;1022194;-62
2021/10/01 09:59:17;;;;;;;6.93;4.20;;;;;;;;;;775660;180;917184;-63
2021/10/01 10:01:49;;;;;;;9.07;4.37;;;;;;;;;;741822;186;920167;-64
2021/10/01 10:04:15;;;;;;;4.80;3.63;;;;;;;;;;746591;186;917751;-64
2021/10/01 10:06:42;;;;;;;5.47;3.83;;;;;;;;;;742929;186;919659;-63
2021/10/01 10:09:08;;;;;;;4.10;3.67;;;;;;;;;;741900;187;1024367;-63
2021/10/01 10:11:34;;;;;;;5.70;4.37;;;;;;;;;;742243;186;918974;-64
2021/10/01 10:14:00;;;;;;;5.47;4.17;;;;;;;;;;745883;184;916412;-64
2021/10/01 10:16:27;;;;;;;8.77;4.40;;;;;;;;;;751656;184;916305;-63
2021/10/01 10:19:01;;;;;;;5.77;3.93;;;;;;;;;;766596;182;916590;-64
2021/10/01 10:21:27;;;;;;;5.47;3.87;;;;;;;;;;760074;180;916522;-64
2021/10/01 10:23:53;;;;;;;6.10;3.40;;;;;;;;;;743757;186;918221;-65
2021/10/01 10:26:19;;;;;;;8.10;4.63;;;;;;;;;;732734;191;919843;-64
2021/10/01 10:28:45;;;;;;;5.47;3.83;;;;;;;;;;747080;186;926005;-65
2021/10/01 10:31:11;;;;;;;6.90;4.30;;;;;;;;;;746879;186;920070;-64
2021/10/01 10:33:43;;;;;;;5.43;4.20;;;;;;;;;;745972;185;919062;-64
2021/10/01 10:36:28;;;;;;;6.33;4.53;;;;;;;;;;760895;182;918858;-64
2021/10/01 10:38:54;;;;;;;6.10;4.00;;;;;;;;;;759876;181;1123913;-63
2021/10/01 10:41:21;;;;;;;7.10;4.50;;;;;;;;;;770452;179;917408;-64
2021/10/01 10:43:47;;;;;;;9.20;5.10;;;;;;;;;;768680;181;1001804;-64
2021/10/01 10:46:19;;;;;;;9.98;4.35;;;;;;;;;;765283;180;919125;-63
2021/10/01 10:48:44;;;;;;;11.80;4.77;;;;;;;;;;759251;183;918835;-64
2021/10/01 10:51:10;;;;;;;5.83;4.63;;;;;;;;;;763507;180;919213;-64
2021/10/01 10:53:39;;;;;;;6.30;4.20;;;;;;;;;;748190;183;919762;-64
2021/10/01 10:56:03;;;;;;;9.60;3.50;;;;;;;;;;756377;183;919648;-65
2021/10/01 10:58:37;;;;;;;7.03;3.73;;;;;;;;;;764323;183;918824;-64
2021/10/01 11:01:21;;;;;;;5.53;4.30;;;;;;;;;;746929;184;918643;-63
2021/10/01 11:03:43;;;;;;;4.63;3.23;;;;;;;;;;745135;184;919709;-64
2021/10/01 11:06:13;;;;;;;7.07;3.22;;;;;;;;;;743298;185;920262;-64
2021/10/01 11:08:38;;;;;;;5.68;3.95;;;;;;;;;;735416;189;918631;-64
2021/10/01 11:11:04;;;;;;;5.47;3.90;;;;;;;;;;759658;183;918877;-64
2021/10/01 11:13:29;;;;;;;4.90;3.60;;;;;;;;;;760977;183;919626;-63
2021/10/01 11:16:01;;;;;;;6.73;2.70;;;;;;;;;;772696;180;917947;-65
2021/10/01 11:18:27;;;;;;;5.77;3.50;;;;;;;;;;758930;183;919055;-64
2021/10/01 11:20:53;;;;;;;5.37;3.53;;;;;;;;;;757304;183;925867;-64
2021/10/01 11:23:19;;;;;;;6.00;3.23;;;;;;;;;;756240;184;920630;-64
2021/10/01 11:25:44;;;;;;;5.17;3.07;;;;;;;;;;762709;183;919595;-64
2021/10/01 11:28:12;;;;;;;4.00;2.60;;;;;;;;;;757810;184;919475;-67
2021/10/01 11:30:37;;;;;;;3.08;2.05;;;;;;;;;;756104;184;918619;-64
2021/10/01 11:33:06;;;;;;;3.13;1.80;;;;;;;;;;762801;184;918636;-64
2021/10/01 11:35:32;;;;;;;6.60;2.47;;;;;;;;;;767122;180;918840;-66
2021/10/01 11:37:58;;;;;;;3.63;2.30;;;;;;;;;;750374;182;968383;-64
2021/10/01 11:40:25;;;;;;;3.63;2.20;;;;;;;;;;765890;180;919382;-64
2021/10/01 11:42:51;;;;;;;7.40;2.47;;;;;;;;;;762217;183;918836;-65
2021/10/01 11:45:17;;;;;;;5.20;2.67;;;;;;;;;;745621;183;920115;-65
2021/10/01 11:48:02;;;;;;;4.50;2.57;;;;;;;;;;760592;183;919669;-65
2021/10/01 11:50:42;;;;;;;4.78;2.33;;;;;;;;;;757268;183;919197;-65
2021/10/01 11:53:08;;;;;;;4.03;2.27;;;;;;;;;;749588;185;918444;-64
2021/10/01 11:55:34;;;;;;;5.10;2.45;;;;;;;;;;753320;183;917639;-64
2021/10/01 11:57:59;;;;;;;4.77;2.37;;;;;;;;;;746731;184;918901;-65
2021/10/01 12:00:25;;;;;;;3.40;2.50;;;;;;;;;;746005;185;918599;-65
2021/10/01 12:02:51;;;;;;;3.83;2.30;;;;;;;;;;748245;185;920837;-65
2021/10/01 12:05:18;;;;;;;3.53;2.10;;;;;;;;;;754865;183;622098;-66
2021/10/01 12:07:43;;;;;;;4.70;2.33;;;;;;;;;;745494;184;922066;-65
2021/10/01 12:10:09;;;;;;;3.43;2.20;;;;;;;;;;761061;183;917676;-64
2021/10/01 12:12:35;;;;;;;3.20;2.10;;;;;;;;;;766446;183;920337;-65
2021/10/01 12:15:01;;;;;;;3.40;2.50;;;;;;;;;;755275;183;2097667;-65
2021/10/01 12:17:27;;;;;;;3.33;2.23;;;;;;;;;;747873;183;939132;-65
2021/10/01 12:19:53;;;;;;;3.13;1.70;;;;;;;;;;766807;183;918666;-65
2021/10/01 12:22:19;;;;;;;2.73;1.90;;;;;;;;;;747032;187;918765;-65
2021/10/01 12:24:47;;;;;;;6.37;2.87;;;;;;;;;;749675;187;919238;-66
2021/10/01 12:27:13;;;;;;;3.60;2.37;;;;;;;;;;752612;183;921155;-65
2021/10/01 12:29:41;;;;;;;3.80;2.30;;;;;;;;;;776088;180;919183;-64
2021/10/01 12:32:07;;;;;;;3.07;1.90;;;;;;;;;;764503;180;917650;-64
2021/10/01 12:34:33;;;;;;;3.13;1.93;;;;;;;;;;743755;184;920083;-64
2021/10/01 12:37:09;;;;;;;4.57;2.07;;;;;;;;;;735909;189;920534;-64
2021/10/01 12:39:35;;;;;;;5.70;2.13;;;;;;;;;;761341;183;917740;-65
2021/10/01 12:42:02;;;;;;;6.30;1.73;;;;;;;;;;753164;184;918721;-66
2021/10/01 12:44:28;;;;;;;6.37;2.00;;;;;;;;;;760173;183;920778;-68
2021/10/01 12:46:54;;;;;;;4.33;1.70;;;;;;;;;;763811;183;907880;-66
2021/10/01 12:49:20;;;;;;;4.03;2.00;;;;;;;;;;756505;183;918708;-65
2021/10/01 12:51:51;;;;;;;3.30;2.10;;;;;;;;;;755882;183;1400448;-67
2021/10/01 12:54:19;;;;;;;3.40;2.03;;;;;;;;;;745072;187;922559;-65
2021/10/01 12:56:45;;;;;;;5.20;2.10;;;;;;;;;;760380;182;918561;-65
2021/10/01 12:59:11;;;;;;;2.47;1.80;;;;;;;;;;764468;181;919750;-66
2021/10/01 13:01:37;;;;;;;4.67;2.27;;;;;;;;;;761879;180;916767;-67
2021/10/01 13:04:04;;;;;;;4.90;2.00;;;;;;;;;;773325;179;918990;-65
2021/10/01 13:06:30;;;;;;;4.00;1.90;;;;;;;;;;759504;183;918888;-66
2021/10/01 13:08:56;;;;;;;7.60;1.97;;;;;;;;;;754898;183;918847;-65
2021/10/01 13:11:22;;;;;;;3.77;1.90;;;;;;;;;;755398;183;919544;-65
2021/10/01 13:13:48;;;;;;;4.97;2.63;;;;;;;;;;759596;183;1226598;-67
2021/10/01 13:16:13;;;;;;;3.83;1.77;;;;;;;;;;728500;186;919646;-67
2021/10/01 13:18:41;;;;;;;3.10;2.27;;;;;;;;;;757881;183;918371;-66
2021/10/01 13:21:08;;;;;;;3.77;1.90;;;;;;;;;;754060;183;919562;-66
2021/10/01 13:23:33;;;;;;;5.67;2.10;;;;;;;;;;755385;183;922896;-66
2021/10/01 13:25:59;;;;;;;5.37;2.47;;;;;;;;;;759255;183;920599;-66
2021/10/01 13:28:25;;;;;;;3.23;2.20;;;;;;;;;;759681;183;1042163;-66
2021/10/01 13:30:51;;;;;;;8.30;2.10;;;;;;;;;;764629;180;916501;-66
2021/10/01 13:33:16;;;;;;;7.00;1.90;;;;;;;;;;748442;184;915492;-65
2021/10/01 13:35:42;;;;;;;3.20;2.20;;;;;;;;;;751045;184;915744;-65
2021/10/01 13:38:08;;;;;;;4.10;2.37;;;;;;;;;;751324;185;914760;-67
2021/10/01 13:40:34;;;;;;;3.03;1.87;;;;;;;;;;742002;184;915525;-67
2021/10/01 13:43:00;;;;;;;4.80;2.13;;;;;;;;;;759050;183;916650;-66
2021/10/01 13:45:26;;;;;;;7.80;2.40;;;;;;;;;;763247;184;915913;-68
2021/10/01 13:47:51;;;;;;;3.73;2.43;;;;;;;;;;757337;184;917163;-66
2021/10/01 13:50:17;;;;;;;3.50;2.17;;;;;;;;;;759095;184;1015820;-66
2021/10/01 13:52:43;;;;;;;4.27;2.17;;;;;;;;;;758785;184;916020;-65
2021/10/01 13:55:09;;;;;;;2.50;1.70;;;;;;;;;;757900;183;916039;-67
2021/10/01 13:57:35;;;;;;;3.37;2.30;;;;;;;;;;759478;183;916170;-65
2021/10/01 14:00:01;;;;;;;4.10;2.20;;;;;;;;;;776115;180;916349;-67
2021/10/01 14:02:27;;;;;;;8.57;1.90;;;;;;;;;;750968;184;922712;-66
2021/10/01 14:04:52;;;;;;;3.40;1.83;;;;;;;;;;746134;183;918091;-65
2021/10/01 14:07:18;;;;;;;3.00;1.93;;;;;;;;;;754625;183;916355;-65
2021/10/01 14:09:44;;;;;;;3.60;1.97;;;;;;;;;;748710;187;915604;-67
2021/10/01 14:12:11;;;;;;;3.83;1.70;;;;;;;;;;731805;186;943944;-67
2021/10/01 14:14:36;;;;;;;5.85;2.00;;;;;;;;;;753095;184;920253;-66
2021/10/01 14:17:02;;;;;;;3.80;2.27;;;;;;;;;;762092;181;915624;-65
2021/10/01 14:19:27;;;;;;;3.97;2.07;;;;;;;;;;755484;183;917145;-67
2021/10/01 14:21:53;;;;;;;4.93;2.00;;;;;;;;;;756313;183;923398;-66
2021/10/01 14:24:19;;;;;;;4.60;1.60;;;;;;;;;;764945;183;914027;-66
2021/10/01 14:26:45;;;;;;;2.92;1.92;;;;;;;;;;762313;183;914951;-69
2021/10/01 14:29:11;;;;;;;5.30;2.33;;;;;;;;;;760605;183;919002;-66
2021/10/01 14:31:37;;;;;;;4.33;1.73;;;;;;;;;;761389;183;926130;-66
2021/10/01 14:34:03;;;;;;;4.93;1.90;;;;;;;;;;764894;181;911812;-67
2021/10/01 14:36:30;;;;;;;2.50;1.70;;;;;;;;;;765007;180;909721;-66
2021/10/01 14:38:55;;;;;;;2.70;1.83;;;;;;;;;;768925;182;625688;-67
2021/10/01 14:41:21;;;;;;;4.77;2.13;;;;;;;;;;763786;183;919380;-65
2021/10/01 14:43:47;;;;;;;3.40;1.90;;;;;;;;;;745751;184;919880;-66
2021/10/01 14:46:12;;;;;;;4.00;1.90;;;;;;;;;;745371;184;933273;-67
2021/10/01 14:48:38;;;;;;;4.00;1.77;;;;;;;;;;736576;190;918331;-65
2021/10/01 14:51:04;;;;;;;2.40;1.67;;;;;;;;;;757748;183;918563;-67
2021/10/01 14:53:30;;;;;;;3.57;1.90;;;;;;;;;;751027;183;919003;-68
2021/10/01 14:55:56;;;;;;;3.30;2.40;;;;;;;;;;740146;187;919215;-66
2021/10/01 14:58:23;;;;;;;3.00;1.83;;;;;;;;;;755966;184;919447;-67
2021/10/01 15:00:47;;;;;;;3.87;1.92;;;;;;;;;;744181;187;921700;-67
2021/10/01 15:03:13;;;;;;;3.43;2.07;;;;;;;;;;728710;189;919816;-67
2021/10/01 15:05:39;;;;;;;3.33;1.70;;;;;;;;;;737356;189;917959;-67
2021/10/01 15:08:05;;;;;;;3.67;2.10;;;;;;;;;;758715;183;918362;-67
2021/10/01 15:10:31;;;;;;;3.00;2.20;;;;;;;;;;746972;184;917169;-67
2021/10/01 15:12:57;;;;;;;3.13;1.90;;;;;;;;;;735093;189;1040325;-67
2021/10/01 15:15:26;;;;;;;7.80;4.20;;;;;;;;;;745494;186;919310;-67
2021/10/01 15:17:49;;;;;;;20.30;10.73;;;;;;;;;;731961;186;919343;-67
2021/10/01 15:20:15;;;;;;;8.87;6.30;;;;;;;;;;750011;187;919014;-67
2021/10/01 15:22:40;;;;;;;5.83;4.20;;;;;;;;;;763077;180;919499;-67
2021/10/01 15:25:06;;;;;;;4.60;2.57;;;;;;;;;;767916;180;919297;-67
2021/10/01 15:27:32;;;;;;;8.27;4.67;;;;;;;;;;768825;180;918816;-67
2021/10/01 15:30:09;;;;;;;4.60;2.70;;;;;;;;;;773333;180;918641;-67
2021/10/01 15:32:35;;;;;;;3.50;2.20;;;;;;;;;;764036;180;919067;-67
2021/10/01 15:35:00;;;;;;;4.47;2.10;;;;;;;;;;753608;183;919273;-64
2021/10/01 15:37:26;;;;;;;3.70;1.87;;;;;;;;;;759638;183;918981;-65